sensor_id;sensor_type;location;lat;lon;timestamp;P1;durP1;ratioP1;P2;durP2;ratioP2
4867;SDS011;2448;48.086;10.862;2023-07-13T00:00:10;4.10;;;2.33;;
4867;SDS011;2448;48.086;10.862;2023-07-13T00:02:40;4.10;;;2.20;;
4867;SDS011;2448;48.086;10.862;2023-07-13T00:05:05;6.00;;;2.53;;
4867;SDS011;2448;48.086;10.862;2023-07-13T00:07:31;1.93;;;1.83;;
4867;SDS011;2448;48.086;10.862;2023-07-13T00:09:57;1.83;;;1.83;;
4867;SDS011;2448;48.086;10.862;2023-07-13T00:12:28;1.83;;;1.60;;
4867;SDS011;2448;48.086;10.862;2023-07-13T00:14:55;2.00;;;1.90;;
4867;SDS011;2448;48.086;10.862;2023-07-13T00:17:21;2.73;;;2.33;;
4867;SDS011;2448;48.086;10.862;2023-07-13T00:19:47;2.50;;;1.97;;
4867;SDS011;2448;48.086;10.862;2023-07-13T00:22:13;5.27;;;1.80;;
4867;SDS011;2448;48.086;10.862;2023-07-13T00:24:38;2.10;;;1.90;;
4867;SDS011;2448;48.086;10.862;2023-07-13T00:27:10;3.97;;;2.10;;
4867;SDS011;2448;48.086;10.862;2023-07-13T00:29:35;2.20;;;2.00;;
4867;SDS011;2448;48.086;10.862;2023-07-13T00:32:02;3.00;;;1.87;;
4867;SDS011;2448;48.086;10.862;2023-07-13T00:34:27;2.43;;;2.23;;
4867;SDS011;2448;48.086;10.862;2023-07-13T00:36:53;1.90;;;1.80;;
4867;SDS011;2448;48.086;10.862;2023-07-13T00:39:18;5.80;;;2.23;;
4867;SDS011;2448;48.086;10.862;2023-07-13T00:41:46;2.93;;;2.33;;
4867;SDS011;2448;48.086;10.862;2023-07-13T00:44:15;4.83;;;1.97;;
4867;SDS011;2448;48.086;10.862;2023-07-13T00:46:40;2.13;;;1.90;;
4867;SDS011;2448;48.086;10.862;2023-07-13T00:49:07;2.20;;;2.10;;
4867;SDS011;2448;48.086;10.862;2023-07-13T00:51:39;6.70;;;3.03;;
4867;SDS011;2448;48.086;10.862;2023-07-13T00:54:06;2.57;;;2.10;;
4867;SDS011;2448;48.086;10.862;2023-07-13T00:56:32;1.80;;;1.70;;
4867;SDS011;2448;48.086;10.862;2023-07-13T00:58:59;2.40;;;2.23;;
4867;SDS011;2448;48.086;10.862;2023-07-13T01:01:25;2.30;;;2.10;;
4867;SDS011;2448;48.086;10.862;2023-07-13T01:03:50;1.90;;;1.73;;
4867;SDS011;2448;48.086;10.862;2023-07-13T01:06:16;2.27;;;2.07;;
4867;SDS011;2448;48.086;10.862;2023-07-13T01:08:42;3.10;;;2.20;;
4867;SDS011;2448;48.086;10.862;2023-07-13T01:11:08;2.13;;;1.97;;
4867;SDS011;2448;48.086;10.862;2023-07-13T01:13:33;2.23;;;2.13;;
4867;SDS011;2448;48.086;10.862;2023-07-13T01:16:00;1.87;;;1.77;;
4867;SDS011;2448;48.086;10.862;2023-07-13T01:18:26;2.57;;;1.67;;
4867;SDS011;2448;48.086;10.862;2023-07-13T01:23:20;3.20;;;1.70;;
4867;SDS011;2448;48.086;10.862;2023-07-13T01:25:47;2.33;;;1.80;;
4867;SDS011;2448;48.086;10.862;2023-07-13T01:28:12;3.67;;;2.80;;
4867;SDS011;2448;48.086;10.862;2023-07-13T01:30:38;4.00;;;2.40;;
4867;SDS011;2448;48.086;10.862;2023-07-13T01:33:05;2.10;;;2.00;;
4867;SDS011;2448;48.086;10.862;2023-07-13T01:35:32;1.77;;;1.67;;
4867;SDS011;2448;48.086;10.862;2023-07-13T01:37:58;9.97;;;2.50;;
4867;SDS011;2448;48.086;10.862;2023-07-13T01:40:25;2.03;;;1.93;;
4867;SDS011;2448;48.086;10.862;2023-07-13T01:42:50;2.50;;;2.00;;
4867;SDS011;2448;48.086;10.862;2023-07-13T01:45:19;2.30;;;2.10;;
4867;SDS011;2448;48.086;10.862;2023-07-13T01:47:44;5.80;;;2.57;;
4867;SDS011;2448;48.086;10.862;2023-07-13T01:50:11;2.47;;;2.27;;
4867;SDS011;2448;48.086;10.862;2023-07-13T01:52:37;1.77;;;1.67;;
4867;SDS011;2448;48.086;10.862;2023-07-13T01:55:02;2.13;;;2.00;;
4867;SDS011;2448;48.086;10.862;2023-07-13T01:57:28;1.67;;;1.57;;
4867;SDS011;2448;48.086;10.862;2023-07-13T01:59:53;2.17;;;1.57;;
4867;SDS011;2448;48.086;10.862;2023-07-13T02:02:19;1.70;;;1.07;;
4867;SDS011;2448;48.086;10.862;2023-07-13T02:04:44;4.17;;;1.83;;
4867;SDS011;2448;48.086;10.862;2023-07-13T02:07:10;1.30;;;1.20;;
4867;SDS011;2448;48.086;10.862;2023-07-13T02:09:35;11.57;;;1.67;;
4867;SDS011;2448;48.086;10.862;2023-07-13T02:12:01;1.20;;;1.10;;
4867;SDS011;2448;48.086;10.862;2023-07-13T02:14:32;1.43;;;1.33;;
4867;SDS011;2448;48.086;10.862;2023-07-13T02:16:57;1.10;;;1.00;;
4867;SDS011;2448;48.086;10.862;2023-07-13T02:19:23;0.80;;;0.80;;
4867;SDS011;2448;48.086;10.862;2023-07-13T02:21:49;1.27;;;1.27;;
4867;SDS011;2448;48.086;10.862;2023-07-13T02:24:14;0.87;;;0.87;;
4867;SDS011;2448;48.086;10.862;2023-07-13T02:26:43;14.97;;;1.67;;
4867;SDS011;2448;48.086;10.862;2023-07-13T02:29:08;4.03;;;1.00;;
4867;SDS011;2448;48.086;10.862;2023-07-13T02:31:34;2.10;;;1.60;;
4867;SDS011;2448;48.086;10.862;2023-07-13T02:34:01;1.20;;;1.10;;
4867;SDS011;2448;48.086;10.862;2023-07-13T02:36:26;3.00;;;1.67;;
4867;SDS011;2448;48.086;10.862;2023-07-13T02:38:51;1.03;;;1.03;;
4867;SDS011;2448;48.086;10.862;2023-07-13T02:41:17;1.97;;;1.87;;
4867;SDS011;2448;48.086;10.862;2023-07-13T02:43:42;0.97;;;0.97;;
4867;SDS011;2448;48.086;10.862;2023-07-13T02:46:08;2.73;;;1.37;;
4867;SDS011;2448;48.086;10.862;2023-07-13T02:48:34;1.13;;;0.90;;
4867;SDS011;2448;48.086;10.862;2023-07-13T02:51:00;1.93;;;1.83;;
4867;SDS011;2448;48.086;10.862;2023-07-13T02:53:25;2.47;;;1.50;;
4867;SDS011;2448;48.086;10.862;2023-07-13T02:55:51;1.43;;;1.27;;
4867;SDS011;2448;48.086;10.862;2023-07-13T02:58:16;1.40;;;1.30;;
4867;SDS011;2448;48.086;10.862;2023-07-13T03:00:43;1.13;;;1.13;;
4867;SDS011;2448;48.086;10.862;2023-07-13T03:03:08;1.67;;;1.57;;
4867;SDS011;2448;48.086;10.862;2023-07-13T03:05:34;1.13;;;1.13;;
4867;SDS011;2448;48.086;10.862;2023-07-13T03:07:59;2.47;;;1.43;;
4867;SDS011;2448;48.086;10.862;2023-07-13T03:10:24;1.40;;;1.30;;
4867;SDS011;2448;48.086;10.862;2023-07-13T03:12:50;5.23;;;1.47;;
4867;SDS011;2448;48.086;10.862;2023-07-13T03:15:23;1.20;;;1.10;;
4867;SDS011;2448;48.086;10.862;2023-07-13T03:17:50;0.90;;;0.90;;
4867;SDS011;2448;48.086;10.862;2023-07-13T03:20:16;4.10;;;1.60;;
4867;SDS011;2448;48.086;10.862;2023-07-13T03:22:41;1.17;;;1.17;;
4867;SDS011;2448;48.086;10.862;2023-07-13T03:25:07;1.90;;;1.60;;
4867;SDS011;2448;48.086;10.862;2023-07-13T03:27:33;1.33;;;1.33;;
4867;SDS011;2448;48.086;10.862;2023-07-13T03:29:59;1.90;;;1.40;;
4867;SDS011;2448;48.086;10.862;2023-07-13T03:32:24;1.30;;;1.20;;
4867;SDS011;2448;48.086;10.862;2023-07-13T03:34:50;1.10;;;1.07;;
4867;SDS011;2448;48.086;10.862;2023-07-13T03:37:15;1.40;;;1.30;;
4867;SDS011;2448;48.086;10.862;2023-07-13T03:39:41;4.70;;;1.73;;
4867;SDS011;2448;48.086;10.862;2023-07-13T03:42:07;1.60;;;1.50;;
4867;SDS011;2448;48.086;10.862;2023-07-13T03:44:32;1.20;;;1.20;;
4867;SDS011;2448;48.086;10.862;2023-07-13T03:46:58;1.83;;;1.40;;
4867;SDS011;2448;48.086;10.862;2023-07-13T03:49:23;1.53;;;1.43;;
4867;SDS011;2448;48.086;10.862;2023-07-13T03:51:48;1.30;;;1.30;;
4867;SDS011;2448;48.086;10.862;2023-07-13T03:54:14;3.27;;;1.83;;
4867;SDS011;2448;48.086;10.862;2023-07-13T03:56:39;3.00;;;1.90;;
4867;SDS011;2448;48.086;10.862;2023-07-13T03:59:06;2.37;;;2.03;;
4867;SDS011;2448;48.086;10.862;2023-07-13T04:01:32;3.83;;;1.90;;
4867;SDS011;2448;48.086;10.862;2023-07-13T04:03:57;1.30;;;1.20;;
4867;SDS011;2448;48.086;10.862;2023-07-13T04:06:26;3.13;;;2.47;;
4867;SDS011;2448;48.086;10.862;2023-07-13T04:08:53;1.67;;;1.50;;
4867;SDS011;2448;48.086;10.862;2023-07-13T04:11:20;1.57;;;1.47;;
4867;SDS011;2448;48.086;10.862;2023-07-13T04:13:45;1.57;;;1.47;;
4867;SDS011;2448;48.086;10.862;2023-07-13T04:16:11;1.97;;;1.87;;
4867;SDS011;2448;48.086;10.862;2023-07-13T04:18:37;3.50;;;2.30;;
4867;SDS011;2448;48.086;10.862;2023-07-13T04:21:02;2.63;;;2.00;;
4867;SDS011;2448;48.086;10.862;2023-07-13T04:23:28;3.07;;;2.40;;
4867;SDS011;2448;48.086;10.862;2023-07-13T04:25:53;2.20;;;1.93;;
4867;SDS011;2448;48.086;10.862;2023-07-13T04:28:20;1.33;;;1.27;;
4867;SDS011;2448;48.086;10.862;2023-07-13T04:30:46;3.80;;;1.70;;
4867;SDS011;2448;48.086;10.862;2023-07-13T04:33:11;2.60;;;2.40;;
4867;SDS011;2448;48.086;10.862;2023-07-13T04:35:37;2.93;;;1.87;;
4867;SDS011;2448;48.086;10.862;2023-07-13T04:38:02;2.33;;;2.03;;
4867;SDS011;2448;48.086;10.862;2023-07-13T04:40:28;2.23;;;2.00;;
4867;SDS011;2448;48.086;10.862;2023-07-13T04:42:54;2.10;;;1.90;;
4867;SDS011;2448;48.086;10.862;2023-07-13T04:45:20;1.87;;;1.77;;
4867;SDS011;2448;48.086;10.862;2023-07-13T04:47:45;2.13;;;2.03;;
4867;SDS011;2448;48.086;10.862;2023-07-13T04:50:12;1.50;;;1.40;;
4867;SDS011;2448;48.086;10.862;2023-07-13T04:52:37;2.30;;;2.07;;
4867;SDS011;2448;48.086;10.862;2023-07-13T04:55:03;2.50;;;2.10;;
4867;SDS011;2448;48.086;10.862;2023-07-13T04:57:28;2.10;;;1.90;;
4867;SDS011;2448;48.086;10.862;2023-07-13T04:59:54;2.20;;;2.00;;
4867;SDS011;2448;48.086;10.862;2023-07-13T05:02:22;2.23;;;1.93;;
4867;SDS011;2448;48.086;10.862;2023-07-13T05:04:48;2.53;;;2.00;;
4867;SDS011;2448;48.086;10.862;2023-07-13T05:07:13;1.67;;;1.57;;
4867;SDS011;2448;48.086;10.862;2023-07-13T05:09:39;1.87;;;1.77;;
4867;SDS011;2448;48.086;10.862;2023-07-13T05:12:08;2.30;;;2.10;;
4867;SDS011;2448;48.086;10.862;2023-07-13T05:14:33;2.13;;;1.83;;
4867;SDS011;2448;48.086;10.862;2023-07-13T05:16:59;3.97;;;1.83;;
4867;SDS011;2448;48.086;10.862;2023-07-13T05:19:24;1.83;;;1.57;;
4867;SDS011;2448;48.086;10.862;2023-07-13T05:21:50;2.60;;;2.00;;
4867;SDS011;2448;48.086;10.862;2023-07-13T05:24:15;2.40;;;1.70;;
4867;SDS011;2448;48.086;10.862;2023-07-13T05:26:40;2.50;;;2.03;;
4867;SDS011;2448;48.086;10.862;2023-07-13T05:29:06;2.40;;;2.03;;
4867;SDS011;2448;48.086;10.862;2023-07-13T05:31:31;2.37;;;1.80;;
4867;SDS011;2448;48.086;10.862;2023-07-13T05:33:57;2.17;;;1.90;;
4867;SDS011;2448;48.086;10.862;2023-07-13T05:36:22;1.27;;;1.17;;
4867;SDS011;2448;48.086;10.862;2023-07-13T05:38:47;3.67;;;2.17;;
4867;SDS011;2448;48.086;10.862;2023-07-13T05:41:13;1.50;;;1.40;;
4867;SDS011;2448;48.086;10.862;2023-07-13T05:43:38;1.47;;;1.47;;
4867;SDS011;2448;48.086;10.862;2023-07-13T05:46:04;1.40;;;1.40;;
4867;SDS011;2448;48.086;10.862;2023-07-13T05:48:29;1.77;;;1.67;;
4867;SDS011;2448;48.086;10.862;2023-07-13T05:50:54;1.87;;;1.10;;
4867;SDS011;2448;48.086;10.862;2023-07-13T05:53:20;1.30;;;1.20;;
4867;SDS011;2448;48.086;10.862;2023-07-13T05:55:45;1.40;;;1.40;;
4867;SDS011;2448;48.086;10.862;2023-07-13T05:58:18;1.70;;;1.57;;
4867;SDS011;2448;48.086;10.862;2023-07-13T06:00:44;1.20;;;1.20;;
4867;SDS011;2448;48.086;10.862;2023-07-13T06:03:09;1.90;;;1.80;;
4867;SDS011;2448;48.086;10.862;2023-07-13T06:05:35;1.20;;;1.20;;
4867;SDS011;2448;48.086;10.862;2023-07-13T06:08:01;2.10;;;1.30;;
4867;SDS011;2448;48.086;10.862;2023-07-13T06:10:26;1.67;;;1.57;;
4867;SDS011;2448;48.086;10.862;2023-07-13T06:12:51;1.30;;;1.20;;
4867;SDS011;2448;48.086;10.862;2023-07-13T06:15:17;7.40;;;1.47;;
4867;SDS011;2448;48.086;10.862;2023-07-13T06:17:42;1.13;;;1.13;;
4867;SDS011;2448;48.086;10.862;2023-07-13T06:20:09;1.90;;;1.80;;
4867;SDS011;2448;48.086;10.862;2023-07-13T06:22:34;0.93;;;0.93;;
4867;SDS011;2448;48.086;10.862;2023-07-13T06:25:00;0.80;;;0.80;;
4867;SDS011;2448;48.086;10.862;2023-07-13T06:27:25;1.20;;;1.20;;
4867;SDS011;2448;48.086;10.862;2023-07-13T06:29:50;1.17;;;1.07;;
4867;SDS011;2448;48.086;10.862;2023-07-13T06:32:16;1.80;;;1.27;;
4867;SDS011;2448;48.086;10.862;2023-07-13T06:34:41;1.73;;;1.50;;
4867;SDS011;2448;48.086;10.862;2023-07-13T06:37:07;0.80;;;0.80;;
4867;SDS011;2448;48.086;10.862;2023-07-13T06:39:32;1.50;;;1.40;;
4867;SDS011;2448;48.086;10.862;2023-07-13T06:41:57;2.00;;;1.30;;
4867;SDS011;2448;48.086;10.862;2023-07-13T06:44:23;1.67;;;1.50;;
4867;SDS011;2448;48.086;10.862;2023-07-13T06:46:48;2.30;;;1.23;;
4867;SDS011;2448;48.086;10.862;2023-07-13T06:49:13;1.20;;;1.10;;
4867;SDS011;2448;48.086;10.862;2023-07-13T06:51:39;1.53;;;1.43;;
4867;SDS011;2448;48.086;10.862;2023-07-13T06:54:04;1.50;;;1.20;;
4867;SDS011;2448;48.086;10.862;2023-07-13T06:56:30;1.07;;;1.07;;
4867;SDS011;2448;48.086;10.862;2023-07-13T06:58:55;1.23;;;1.23;;
4867;SDS011;2448;48.086;10.862;2023-07-13T07:01:20;2.27;;;1.43;;
4867;SDS011;2448;48.086;10.862;2023-07-13T07:03:46;3.73;;;1.07;;
4867;SDS011;2448;48.086;10.862;2023-07-13T07:08:38;2.50;;;1.30;;
4867;SDS011;2448;48.086;10.862;2023-07-13T07:11:03;0.90;;;0.90;;
4867;SDS011;2448;48.086;10.862;2023-07-13T07:13:28;1.27;;;1.17;;
4867;SDS011;2448;48.086;10.862;2023-07-13T07:15:54;1.67;;;1.20;;
4867;SDS011;2448;48.086;10.862;2023-07-13T07:18:20;1.27;;;1.27;;
4867;SDS011;2448;48.086;10.862;2023-07-13T07:20:45;0.90;;;0.90;;
4867;SDS011;2448;48.086;10.862;2023-07-13T07:23:11;8.63;;;1.60;;
4867;SDS011;2448;48.086;10.862;2023-07-13T07:25:36;1.33;;;1.23;;
4867;SDS011;2448;48.086;10.862;2023-07-13T07:28:07;1.53;;;1.43;;
4867;SDS011;2448;48.086;10.862;2023-07-13T07:30:32;1.20;;;1.10;;
4867;SDS011;2448;48.086;10.862;2023-07-13T07:32:58;2.63;;;1.47;;
4867;SDS011;2448;48.086;10.862;2023-07-13T07:35:23;1.60;;;1.50;;
4867;SDS011;2448;48.086;10.862;2023-07-13T07:37:48;1.50;;;1.40;;
4867;SDS011;2448;48.086;10.862;2023-07-13T07:40:14;1.33;;;1.13;;
4867;SDS011;2448;48.086;10.862;2023-07-13T07:42:39;1.27;;;1.20;;
4867;SDS011;2448;48.086;10.862;2023-07-13T07:45:05;2.40;;;1.47;;
4867;SDS011;2448;48.086;10.862;2023-07-13T07:47:30;0.83;;;0.83;;
4867;SDS011;2448;48.086;10.862;2023-07-13T07:49:56;1.00;;;0.77;;
4867;SDS011;2448;48.086;10.862;2023-07-13T07:52:21;4.87;;;1.20;;
4867;SDS011;2448;48.086;10.862;2023-07-13T07:54:47;1.40;;;1.33;;
4867;SDS011;2448;48.086;10.862;2023-07-13T07:57:12;1.10;;;1.10;;
4867;SDS011;2448;48.086;10.862;2023-07-13T07:59:38;1.50;;;1.30;;
4867;SDS011;2448;48.086;10.862;2023-07-13T08:02:03;1.50;;;1.40;;
4867;SDS011;2448;48.086;10.862;2023-07-13T08:04:29;1.53;;;1.43;;
4867;SDS011;2448;48.086;10.862;2023-07-13T08:06:54;1.00;;;1.00;;
4867;SDS011;2448;48.086;10.862;2023-07-13T08:09:21;3.83;;;1.50;;
4867;SDS011;2448;48.086;10.862;2023-07-13T08:11:47;1.37;;;1.10;;
4867;SDS011;2448;48.086;10.862;2023-07-13T08:14:12;1.57;;;1.47;;
4867;SDS011;2448;48.086;10.862;2023-07-13T08:16:37;1.83;;;1.50;;
4867;SDS011;2448;48.086;10.862;2023-07-13T08:19:03;4.30;;;1.10;;
4867;SDS011;2448;48.086;10.862;2023-07-13T08:21:29;1.57;;;1.47;;
4867;SDS011;2448;48.086;10.862;2023-07-13T08:23:55;1.23;;;1.13;;
4867;SDS011;2448;48.086;10.862;2023-07-13T08:26:20;2.43;;;1.40;;
4867;SDS011;2448;48.086;10.862;2023-07-13T08:28:47;1.70;;;1.43;;
4867;SDS011;2448;48.086;10.862;2023-07-13T08:31:12;1.37;;;1.27;;
4867;SDS011;2448;48.086;10.862;2023-07-13T08:33:39;1.00;;;1.00;;
4867;SDS011;2448;48.086;10.862;2023-07-13T08:36:06;1.50;;;1.40;;
4867;SDS011;2448;48.086;10.862;2023-07-13T08:38:31;0.77;;;0.77;;
4867;SDS011;2448;48.086;10.862;2023-07-13T08:40:56;1.20;;;1.10;;
4867;SDS011;2448;48.086;10.862;2023-07-13T08:43:44;5.27;;;1.70;;
4867;SDS011;2448;48.086;10.862;2023-07-13T08:48:41;3.00;;;1.57;;
4867;SDS011;2448;48.086;10.862;2023-07-13T08:53:37;1.80;;;1.50;;
4867;SDS011;2448;48.086;10.862;2023-07-13T08:56:03;1.50;;;1.40;;
4867;SDS011;2448;48.086;10.862;2023-07-13T08:58:29;1.17;;;1.07;;
4867;SDS011;2448;48.086;10.862;2023-07-13T09:01:08;1.13;;;1.03;;
4867;SDS011;2448;48.086;10.862;2023-07-13T09:04:18;1.00;;;1.00;;
4867;SDS011;2448;48.086;10.862;2023-07-13T09:06:27;1.10;;;1.10;;
4867;SDS011;2448;48.086;10.862;2023-07-13T09:16:21;1.40;;;1.10;;
4867;SDS011;2448;48.086;10.862;2023-07-13T09:18:48;0.80;;;0.80;;
4867;SDS011;2448;48.086;10.862;2023-07-13T09:23:40;1.50;;;1.40;;
4867;SDS011;2448;48.086;10.862;2023-07-13T09:28:42;1.20;;;1.20;;
4867;SDS011;2448;48.086;10.862;2023-07-13T09:33:35;2.13;;;1.50;;
4867;SDS011;2448;48.086;10.862;2023-07-13T09:36:00;1.20;;;1.20;;
4867;SDS011;2448;48.086;10.862;2023-07-13T09:38:27;1.40;;;1.30;;
4867;SDS011;2448;48.086;10.862;2023-07-13T09:40:59;1.17;;;1.10;;
4867;SDS011;2448;48.086;10.862;2023-07-13T09:43:26;3.77;;;1.87;;
4867;SDS011;2448;48.086;10.862;2023-07-13T09:45:54;1.50;;;1.43;;
4867;SDS011;2448;48.086;10.862;2023-07-13T09:48:19;1.40;;;1.30;;
4867;SDS011;2448;48.086;10.862;2023-07-13T09:50:45;2.40;;;1.50;;
4867;SDS011;2448;48.086;10.862;2023-07-13T09:53:15;1.30;;;1.30;;
4867;SDS011;2448;48.086;10.862;2023-07-13T09:55:42;4.37;;;1.30;;
4867;SDS011;2448;48.086;10.862;2023-07-13T10:00:36;1.60;;;1.50;;
4867;SDS011;2448;48.086;10.862;2023-07-13T10:03:21;2.50;;;1.20;;
4867;SDS011;2448;48.086;10.862;2023-07-13T10:05:48;2.20;;;1.60;;
4867;SDS011;2448;48.086;10.862;2023-07-13T10:08:28;1.47;;;1.37;;
4867;SDS011;2448;48.086;10.862;2023-07-13T10:11:30;1.20;;;1.10;;
4867;SDS011;2448;48.086;10.862;2023-07-13T10:13:58;1.73;;;0.93;;
4867;SDS011;2448;48.086;10.862;2023-07-13T10:16:34;1.20;;;1.20;;
4867;SDS011;2448;48.086;10.862;2023-07-13T10:19:02;2.67;;;1.00;;
4867;SDS011;2448;48.086;10.862;2023-07-13T10:21:38;0.90;;;0.90;;
4867;SDS011;2448;48.086;10.862;2023-07-13T10:24:12;1.10;;;1.10;;
4867;SDS011;2448;48.086;10.862;2023-07-13T10:26:42;2.10;;;1.20;;
4867;SDS011;2448;48.086;10.862;2023-07-13T10:29:11;1.00;;;0.90;;
4867;SDS011;2448;48.086;10.862;2023-07-13T10:31:39;1.60;;;0.90;;
4867;SDS011;2448;48.086;10.862;2023-07-13T10:34:04;1.23;;;0.80;;
4867;SDS011;2448;48.086;10.862;2023-07-13T10:36:31;2.00;;;1.00;;
4867;SDS011;2448;48.086;10.862;2023-07-13T10:38:59;10.40;;;1.00;;
4867;SDS011;2448;48.086;10.862;2023-07-13T10:41:26;1.30;;;0.80;;
4867;SDS011;2448;48.086;10.862;2023-07-13T10:43:53;1.80;;;1.30;;
4867;SDS011;2448;48.086;10.862;2023-07-13T10:46:20;0.90;;;0.90;;
4867;SDS011;2448;48.086;10.862;2023-07-13T10:48:49;1.13;;;1.00;;
4867;SDS011;2448;48.086;10.862;2023-07-13T10:51:17;2.10;;;1.10;;
4867;SDS011;2448;48.086;10.862;2023-07-13T10:53:42;0.90;;;0.90;;
4867;SDS011;2448;48.086;10.862;2023-07-13T10:56:22;1.00;;;1.00;;
4867;SDS011;2448;48.086;10.862;2023-07-13T10:59:01;1.17;;;1.07;;
4867;SDS011;2448;48.086;10.862;2023-07-13T11:01:27;1.70;;;0.70;;
4867;SDS011;2448;48.086;10.862;2023-07-13T11:04:03;0.60;;;0.60;;
4867;SDS011;2448;48.086;10.862;2023-07-13T11:06:34;1.20;;;1.10;;
4867;SDS011;2448;48.086;10.862;2023-07-13T11:09:18;1.37;;;0.80;;
4867;SDS011;2448;48.086;10.862;2023-07-13T11:11:44;2.40;;;1.00;;
4867;SDS011;2448;48.086;10.862;2023-07-13T11:16:50;2.07;;;1.30;;
4867;SDS011;2448;48.086;10.862;2023-07-13T11:24:28;1.17;;;0.87;;
4867;SDS011;2448;48.086;10.862;2023-07-13T11:26:55;1.33;;;1.23;;
4867;SDS011;2448;48.086;10.862;2023-07-13T11:29:24;0.70;;;0.70;;
4867;SDS011;2448;48.086;10.862;2023-07-13T11:31:51;1.00;;;0.70;;
4867;SDS011;2448;48.086;10.862;2023-07-13T11:34:19;0.93;;;0.93;;
4867;SDS011;2448;48.086;10.862;2023-07-13T11:36:46;1.10;;;1.00;;
4867;SDS011;2448;48.086;10.862;2023-07-13T11:39:23;1.07;;;1.07;;
4867;SDS011;2448;48.086;10.862;2023-07-13T11:41:53;3.70;;;1.03;;
4867;SDS011;2448;48.086;10.862;2023-07-13T11:44:22;0.83;;;0.83;;
4867;SDS011;2448;48.086;10.862;2023-07-13T11:46:52;0.80;;;0.80;;
4867;SDS011;2448;48.086;10.862;2023-07-13T11:49:19;2.20;;;1.00;;
4867;SDS011;2448;48.086;10.862;2023-07-13T11:51:45;1.67;;;0.80;;
4867;SDS011;2448;48.086;10.862;2023-07-13T11:54:21;1.10;;;1.00;;
4867;SDS011;2448;48.086;10.862;2023-07-13T11:56:48;1.07;;;1.07;;
4867;SDS011;2448;48.086;10.862;2023-07-13T11:59:14;1.03;;;1.03;;
4867;SDS011;2448;48.086;10.862;2023-07-13T12:01:42;2.80;;;0.93;;
4867;SDS011;2448;48.086;10.862;2023-07-13T12:04:08;1.10;;;1.07;;
4867;SDS011;2448;48.086;10.862;2023-07-13T12:06:40;5.70;;;1.20;;
4867;SDS011;2448;48.086;10.862;2023-07-13T12:09:11;0.97;;;0.97;;
4867;SDS011;2448;48.086;10.862;2023-07-13T12:11:39;1.23;;;1.23;;
4867;SDS011;2448;48.086;10.862;2023-07-13T12:14:05;1.10;;;1.10;;
4867;SDS011;2448;48.086;10.862;2023-07-13T12:16:30;1.03;;;0.93;;
4867;SDS011;2448;48.086;10.862;2023-07-13T12:18:58;1.23;;;1.10;;
4867;SDS011;2448;48.086;10.862;2023-07-13T12:21:27;1.10;;;1.00;;
4867;SDS011;2448;48.086;10.862;2023-07-13T12:23:54;0.83;;;0.83;;
4867;SDS011;2448;48.086;10.862;2023-07-13T12:26:20;1.93;;;0.90;;
4867;SDS011;2448;48.086;10.862;2023-07-13T12:28:51;1.17;;;1.17;;
4867;SDS011;2448;48.086;10.862;2023-07-13T12:32:02;0.93;;;0.87;;
4867;SDS011;2448;48.086;10.862;2023-07-13T12:34:13;1.03;;;1.03;;
4867;SDS011;2448;48.086;10.862;2023-07-13T12:39:18;1.33;;;0.80;;
4867;SDS011;2448;48.086;10.862;2023-07-13T12:41:44;0.80;;;0.80;;
4867;SDS011;2448;48.086;10.862;2023-07-13T12:47:12;1.27;;;1.00;;
4867;SDS011;2448;48.086;10.862;2023-07-13T12:49:40;1.00;;;0.90;;
4867;SDS011;2448;48.086;10.862;2023-07-13T12:52:12;7.70;;;1.17;;
4867;SDS011;2448;48.086;10.862;2023-07-13T12:54:39;1.60;;;1.23;;
4867;SDS011;2448;48.086;10.862;2023-07-13T12:57:05;1.40;;;1.30;;
4867;SDS011;2448;48.086;10.862;2023-07-13T12:59:34;1.80;;;1.20;;
4867;SDS011;2448;48.086;10.862;2023-07-13T13:02:02;1.00;;;1.00;;
4867;SDS011;2448;48.086;10.862;2023-07-13T13:04:28;0.83;;;0.83;;
4867;SDS011;2448;48.086;10.862;2023-07-13T13:07:03;1.00;;;1.00;;
4867;SDS011;2448;48.086;10.862;2023-07-13T13:09:29;2.20;;;1.23;;
4867;SDS011;2448;48.086;10.862;2023-07-13T13:11:54;1.53;;;0.80;;
4867;SDS011;2448;48.086;10.862;2023-07-13T13:14:19;0.80;;;0.80;;
4867;SDS011;2448;48.086;10.862;2023-07-13T13:16:47;1.37;;;1.17;;
4867;SDS011;2448;48.086;10.862;2023-07-13T13:21:39;1.27;;;1.10;;
4867;SDS011;2448;48.086;10.862;2023-07-13T13:24:10;1.30;;;1.20;;
4867;SDS011;2448;48.086;10.862;2023-07-13T13:26:36;0.77;;;0.77;;
4867;SDS011;2448;48.086;10.862;2023-07-13T13:29:01;1.17;;;1.17;;
4867;SDS011;2448;48.086;10.862;2023-07-13T13:31:26;1.20;;;1.10;;
4867;SDS011;2448;48.086;10.862;2023-07-13T13:33:52;1.80;;;1.30;;
4867;SDS011;2448;48.086;10.862;2023-07-13T13:36:18;1.67;;;1.57;;
4867;SDS011;2448;48.086;10.862;2023-07-13T13:38:44;4.63;;;1.20;;
4867;SDS011;2448;48.086;10.862;2023-07-13T13:41:10;2.00;;;1.20;;
4867;SDS011;2448;48.086;10.862;2023-07-13T13:43:36;1.07;;;1.07;;
4867;SDS011;2448;48.086;10.862;2023-07-13T13:46:02;1.40;;;1.40;;
4867;SDS011;2448;48.086;10.862;2023-07-13T13:48:32;1.00;;;1.00;;
4867;SDS011;2448;48.086;10.862;2023-07-13T13:50:58;1.30;;;1.20;;
4867;SDS011;2448;48.086;10.862;2023-07-13T13:53:23;1.27;;;1.00;;
4867;SDS011;2448;48.086;10.862;2023-07-13T13:55:50;0.93;;;0.93;;
4867;SDS011;2448;48.086;10.862;2023-07-13T13:58:17;1.30;;;1.20;;
4867;SDS011;2448;48.086;10.862;2023-07-13T14:00:42;1.07;;;1.07;;
4867;SDS011;2448;48.086;10.862;2023-07-13T14:03:17;1.00;;;1.00;;
4867;SDS011;2448;48.086;10.862;2023-07-13T14:05:43;0.90;;;0.90;;
4867;SDS011;2448;48.086;10.862;2023-07-13T14:08:15;1.73;;;1.33;;
4867;SDS011;2448;48.086;10.862;2023-07-13T14:10:41;1.27;;;1.17;;
4867;SDS011;2448;48.086;10.862;2023-07-13T14:13:09;1.00;;;1.00;;
4867;SDS011;2448;48.086;10.862;2023-07-13T14:15:38;1.37;;;1.27;;
4867;SDS011;2448;48.086;10.862;2023-07-13T14:18:03;2.83;;;0.90;;
4867;SDS011;2448;48.086;10.862;2023-07-13T14:20:29;1.10;;;0.93;;
4867;SDS011;2448;48.086;10.862;2023-07-13T14:22:55;1.87;;;1.00;;
4867;SDS011;2448;48.086;10.862;2023-07-13T14:25:20;1.20;;;1.10;;
4867;SDS011;2448;48.086;10.862;2023-07-13T14:27:48;0.80;;;0.80;;
4867;SDS011;2448;48.086;10.862;2023-07-13T14:30:14;0.83;;;0.83;;
4867;SDS011;2448;48.086;10.862;2023-07-13T14:32:40;2.00;;;1.10;;
4867;SDS011;2448;48.086;10.862;2023-07-13T14:35:05;0.90;;;0.90;;
4867;SDS011;2448;48.086;10.862;2023-07-13T14:37:31;1.37;;;1.07;;
4867;SDS011;2448;48.086;10.862;2023-07-13T14:39:56;1.00;;;1.00;;
4867;SDS011;2448;48.086;10.862;2023-07-13T14:42:22;1.47;;;1.13;;
4867;SDS011;2448;48.086;10.862;2023-07-13T14:44:47;1.53;;;1.30;;
4867;SDS011;2448;48.086;10.862;2023-07-13T14:47:13;3.13;;;1.00;;
4867;SDS011;2448;48.086;10.862;2023-07-13T14:49:39;1.17;;;0.97;;
4867;SDS011;2448;48.086;10.862;2023-07-13T14:52:12;2.10;;;1.37;;
4867;SDS011;2448;48.086;10.862;2023-07-13T14:54:38;1.00;;;1.00;;
4867;SDS011;2448;48.086;10.862;2023-07-13T14:57:16;1.10;;;1.00;;
4867;SDS011;2448;48.086;10.862;2023-07-13T14:59:42;2.40;;;1.13;;
4867;SDS011;2448;48.086;10.862;2023-07-13T15:04:41;1.53;;;1.20;;
4867;SDS011;2448;48.086;10.862;2023-07-13T15:07:07;1.20;;;1.20;;
4867;SDS011;2448;48.086;10.862;2023-07-13T15:09:34;0.90;;;0.90;;
4867;SDS011;2448;48.086;10.862;2023-07-13T15:12:00;5.30;;;1.00;;
4867;SDS011;2448;48.086;10.862;2023-07-13T15:14:25;1.00;;;1.00;;
4867;SDS011;2448;48.086;10.862;2023-07-13T15:16:51;2.13;;;1.17;;
4867;SDS011;2448;48.086;10.862;2023-07-13T15:19:18;6.40;;;1.37;;
4867;SDS011;2448;48.086;10.862;2023-07-13T15:21:44;2.30;;;1.50;;
4867;SDS011;2448;48.086;10.862;2023-07-13T15:24:10;4.00;;;1.10;;
4867;SDS011;2448;48.086;10.862;2023-07-13T15:26:35;0.80;;;0.80;;
4867;SDS011;2448;48.086;10.862;2023-07-13T15:29:01;1.67;;;1.03;;
4867;SDS011;2448;48.086;10.862;2023-07-13T15:31:26;1.67;;;0.87;;
4867;SDS011;2448;48.086;10.862;2023-07-13T15:33:53;1.20;;;1.10;;
4867;SDS011;2448;48.086;10.862;2023-07-13T15:36:20;1.50;;;1.40;;
4867;SDS011;2448;48.086;10.862;2023-07-13T15:38:46;1.20;;;1.20;;
4867;SDS011;2448;48.086;10.862;2023-07-13T15:41:15;8.33;;;1.70;;
4867;SDS011;2448;48.086;10.862;2023-07-13T15:43:41;12.53;;;1.20;;